createdAt,value
2022-09-17T00:01:20.819Z,14.20
2022-09-17T00:03:52.617Z,14.30
2022-09-17T00:06:19.563Z,14.30
2022-09-17T00:08:46.409Z,14.30
2022-09-17T00:11:15.483Z,14.30
2022-09-17T00:13:42.650Z,14.40
2022-09-17T00:16:09.616Z,14.40
2022-09-17T00:18:40.670Z,14.50
2022-09-17T00:21:08.106Z,14.30
2022-09-17T00:23:34.921Z,14.20
2022-09-17T00:26:04.999Z,14.10
2022-09-17T00:28:31.864Z,14.00
2022-09-17T00:30:58.690Z,13.80
2022-09-17T00:33:25.526Z,13.70
2022-09-17T00:35:59.292Z,13.60
2022-09-17T00:38:26.501Z,13.60
2022-09-17T00:40:53.370Z,13.70
2022-09-17T00:43:41.947Z,13.90
2022-09-17T00:46:33.491Z,14.20
2022-09-17T00:49:02.433Z,14.40
2022-09-17T00:51:42.252Z,14.60
2022-09-17T00:54:10.298Z,14.60
2022-09-17T00:56:38.912Z,14.60
2022-09-17T00:59:05.959Z,14.60
2022-09-17T01:01:32.943Z,14.60
2022-09-17T01:03:59.818Z,14.70
2022-09-17T01:06:46.721Z,14.70
2022-09-17T01:09:19.605Z,14.70
2022-09-17T01:11:56.712Z,14.60
2022-09-17T01:14:47.187Z,14.70
2022-09-17T01:17:28.758Z,14.80
2022-09-17T01:20:32.499Z,14.90
2022-09-17T01:23:05.518Z,14.90
2022-09-17T01:25:38.225Z,14.70
2022-09-17T01:28:37.181Z,14.80
2022-09-17T01:31:25.278Z,14.80
2022-09-17T01:34:01.593Z,14.80
2022-09-17T01:36:28.331Z,14.80
2022-09-17T01:39:13.962Z,14.90
2022-09-17T01:41:45.658Z,14.90
2022-09-17T01:44:40.142Z,15.00
2022-09-17T01:47:22.477Z,15.00
2022-09-17T01:49:51.559Z,15.00
2022-09-17T01:52:18.404Z,14.90
2022-09-17T01:54:49.292Z,14.90
2022-09-17T01:57:27.681Z,14.90
2022-09-17T02:00:10.483Z,14.90
2022-09-17T02:02:41.995Z,14.90
2022-09-17T02:05:15.666Z,14.90
2022-09-17T02:07:45.951Z,14.90
2022-09-17T02:10:14.638Z,14.80
2022-09-17T02:12:46.866Z,14.90
2022-09-17T02:15:21.644Z,14.90
2022-09-17T02:18:17.968Z,14.90
2022-09-17T02:20:50.974Z,14.80
2022-09-17T02:23:21.313Z,14.80
2022-09-17T02:25:53.259Z,14.80
2022-09-17T02:28:25.382Z,14.70
2022-09-17T02:30:52.181Z,14.60
2022-09-17T02:33:18.981Z,14.50
2022-09-17T02:35:46.633Z,14.20
2022-09-17T02:38:13.448Z,14.10
2022-09-17T02:40:50.850Z,14.00
2022-09-17T02:43:29.391Z,14.10
2022-09-17T02:46:03.913Z,14.10
2022-09-17T02:48:36.809Z,14.30
2022-09-17T02:51:09.958Z,14.40
2022-09-17T02:53:46.308Z,14.50
2022-09-17T02:56:36.972Z,14.60
2022-09-17T02:59:34.215Z,14.60
2022-09-17T03:02:08.961Z,14.60
2022-09-17T03:04:35.805Z,14.60
2022-09-17T03:07:09.138Z,14.60
2022-09-17T03:09:36.305Z,14.70
2022-09-17T03:12:03.722Z,14.80
2022-09-17T03:14:30.603Z,14.90
2022-09-17T03:16:57.540Z,14.90
2022-09-17T03:19:24.440Z,14.90
2022-09-17T03:21:51.221Z,15.00
2022-09-17T03:24:19.016Z,15.00
2022-09-17T03:26:47.548Z,14.90
2022-09-17T03:29:14.353Z,14.70
2022-09-17T03:31:41.291Z,14.50
2022-09-17T03:34:08.127Z,14.30
2022-09-17T03:36:34.905Z,14.30
2022-09-17T03:39:01.662Z,14.20
2022-09-17T03:41:28.489Z,14.30
2022-09-17T03:43:55.255Z,14.40
2022-09-17T03:46:22.167Z,14.50
2022-09-17T03:48:49.001Z,14.50
2022-09-17T03:51:15.856Z,14.50
2022-09-17T03:53:42.722Z,14.60
2022-09-17T03:56:09.531Z,14.60
2022-09-17T03:58:36.641Z,14.70
2022-09-17T04:01:04.715Z,14.80
2022-09-17T04:03:31.570Z,14.70
2022-09-17T04:05:58.426Z,14.70
2022-09-17T04:08:25.281Z,14.70
2022-09-17T04:10:52.066Z,14.70
2022-09-17T04:13:18.927Z,14.60
2022-09-17T04:15:46.190Z,14.50
2022-09-17T04:18:13.246Z,14.40
2022-09-17T04:20:40.116Z,14.20
2022-09-17T04:23:10.199Z,13.90
2022-09-17T04:25:37.006Z,13.60
2022-09-17T04:28:03.950Z,13.40
2022-09-17T04:30:30.708Z,13.30
2022-09-17T04:32:57.460Z,13.30
2022-09-17T04:35:24.326Z,13.30
2022-09-17T04:37:57.437Z,13.20
2022-09-17T04:40:24.937Z,13.20
2022-09-17T04:43:03.307Z,13.20
2022-09-17T04:45:33.635Z,13.20
2022-09-17T04:48:00.621Z,13.20
2022-09-17T04:50:27.440Z,13.20
2022-09-17T04:52:54.285Z,13.10
2022-09-17T04:55:21.052Z,13.10
2022-09-17T04:57:50.860Z,13.10
2022-09-17T05:00:18.223Z,13.30
2022-09-17T05:02:46.160Z,13.30
2022-09-17T05:05:13.449Z,13.50
2022-09-17T05:07:40.281Z,13.70
2022-09-17T05:10:07.851Z,13.80
2022-09-17T05:12:34.781Z,14.00
2022-09-17T05:15:01.793Z,14.00
2022-09-17T05:17:28.712Z,14.20
2022-09-17T05:19:55.464Z,14.00
2022-09-17T05:22:22.249Z,13.80
2022-09-17T05:24:49.070Z,13.80
2022-09-17T05:27:15.939Z,13.80
2022-09-17T05:29:42.706Z,13.80
2022-09-17T05:32:09.457Z,13.70
2022-09-17T05:34:36.255Z,13.70
2022-09-17T05:37:03.013Z,13.60
2022-09-17T05:39:29.762Z,13.50
2022-09-17T05:41:56.562Z,13.60
2022-09-17T05:44:23.738Z,13.60
2022-09-17T05:46:52.980Z,13.60
2022-09-17T05:49:19.831Z,13.70
2022-09-17T05:51:46.586Z,13.70
2022-09-17T05:54:13.354Z,13.80
2022-09-17T05:56:40.222Z,14.00
2022-09-17T05:59:08.038Z,14.10
2022-09-17T06:01:34.807Z,14.10
2022-09-17T06:04:04.525Z,14.10
2022-09-17T06:06:31.426Z,14.10
2022-09-17T06:09:01.094Z,14.10
2022-09-17T06:11:28.510Z,13.90
2022-09-17T06:13:55.798Z,13.70
2022-09-17T06:16:23.199Z,13.60
2022-09-17T06:18:53.171Z,13.40
2022-09-17T06:21:21.576Z,13.30
2022-09-17T06:23:48.825Z,13.40
2022-09-17T06:26:15.660Z,13.40
2022-09-17T06:28:42.630Z,13.10
2022-09-17T06:31:10.055Z,12.90
2022-09-17T06:33:36.889Z,12.70
2022-09-17T06:36:13.127Z,12.80
2022-09-17T06:38:40.683Z,12.90
2022-09-17T06:41:07.509Z,12.80
2022-09-17T06:43:34.280Z,12.70
2022-09-17T06:46:02.293Z,12.60
2022-09-17T06:48:30.049Z,12.80
2022-09-17T06:50:58.785Z,13.00
2022-09-17T06:53:25.585Z,13.20
2022-09-17T06:55:52.535Z,13.50
2022-09-17T06:58:19.346Z,13.80
2022-09-17T07:00:46.161Z,13.90
2022-09-17T07:03:13.039Z,13.90
2022-09-17T07:05:39.974Z,13.70
2022-09-17T07:08:06.794Z,13.50
2022-09-17T07:10:33.590Z,13.40
2022-09-17T07:13:00.403Z,13.60
2022-09-17T07:15:27.227Z,13.80
2022-09-17T07:17:54.067Z,13.90
2022-09-17T07:20:20.933Z,14.10
2022-09-17T07:22:56.582Z,14.10
2022-09-17T07:25:24.499Z,14.30
2022-09-17T07:27:51.302Z,14.10
2022-09-17T07:30:18.542Z,13.80
2022-09-17T07:32:45.364Z,13.70
2022-09-17T07:35:12.491Z,13.70
2022-09-17T07:37:39.514Z,13.90
2022-09-17T07:40:07.630Z,13.80
2022-09-17T07:42:34.907Z,13.90
2022-09-17T07:45:02.349Z,13.80
2022-09-17T07:47:29.292Z,13.80
2022-09-17T07:49:56.053Z,13.90
2022-09-17T07:52:22.844Z,14.00
2022-09-17T07:54:49.646Z,14.10
2022-09-17T07:57:16.416Z,14.10
2022-09-17T07:59:43.225Z,14.00
2022-09-17T08:02:14.251Z,13.90
2022-09-17T08:04:44.178Z,13.80
2022-09-17T08:07:13.964Z,13.80
2022-09-17T08:09:40.787Z,13.80
2022-09-17T08:12:07.915Z,13.80
2022-09-17T08:14:34.683Z,13.90
2022-09-17T08:17:01.537Z,13.90
2022-09-17T08:19:31.987Z,14.10
2022-09-17T08:21:58.831Z,14.10
2022-09-17T08:24:25.674Z,14.20
2022-09-17T08:26:52.582Z,14.30
2022-09-17T08:29:19.539Z,14.30
2022-09-17T08:31:46.419Z,14.30
2022-09-17T08:34:13.403Z,14.40
2022-09-17T08:36:40.213Z,14.40
2022-09-17T08:39:07.055Z,14.40
2022-09-17T08:41:40.266Z,14.40
2022-09-17T08:44:30.982Z,14.40
2022-09-17T08:47:01.911Z,14.50
2022-09-17T08:49:34.357Z,14.70
2022-09-17T08:52:51.839Z,14.40
2022-09-17T08:55:31.549Z,14.70
2022-09-17T08:58:19.646Z,14.80
2022-09-17T09:00:55.949Z,15.20
2022-09-17T09:03:41.091Z,15.10
2022-09-17T09:06:10.901Z,14.90
2022-09-17T09:08:41.038Z,14.80
2022-09-17T09:11:18.238Z,14.70
2022-09-17T09:13:47.298Z,14.70
2022-09-17T09:16:28.454Z,14.90
2022-09-17T09:18:55.967Z,15.00
2022-09-17T09:21:30.127Z,15.20
2022-09-17T09:24:32.179Z,15.40
2022-09-17T09:27:19.478Z,15.40
2022-09-17T09:29:56.810Z,15.40
2022-09-17T09:32:38.443Z,15.40
2022-09-17T09:35:27.411Z,15.60
2022-09-17T09:38:03.939Z,15.60
2022-09-17T09:40:55.550Z,15.70
2022-09-17T09:43:29.528Z,15.90
2022-09-17T09:46:03.528Z,15.80
2022-09-17T09:48:45.339Z,15.70
2022-09-17T09:51:36.177Z,15.90
2022-09-17T09:54:08.698Z,16.00
2022-09-17T09:57:09.175Z,15.80
2022-09-17T09:59:36.575Z,15.60
2022-09-17T10:02:03.635Z,15.40
2022-09-17T10:04:32.666Z,15.30
2022-09-17T10:07:07.150Z,15.20
2022-09-17T10:09:35.399Z,15.10
2022-09-17T10:12:14.919Z,15.20
2022-09-17T10:14:42.962Z,15.40
2022-09-17T10:17:21.635Z,15.60
2022-09-17T10:20:12.693Z,15.80
2022-09-17T10:22:44.631Z,15.90
2022-09-17T10:25:30.045Z,16.00
2022-09-17T10:27:57.945Z,16.00
2022-09-17T10:30:26.007Z,16.00
2022-09-17T10:33:16.327Z,16.10
2022-09-17T10:35:54.628Z,16.40
2022-09-17T10:38:31.782Z,16.30
2022-09-17T10:41:19.223Z,16.00
2022-09-17T10:43:46.132Z,15.20
2022-09-17T10:46:16.035Z,14.80
2022-09-17T10:49:08.374Z,14.60
2022-09-17T10:51:35.191Z,14.20
2022-09-17T10:54:19.843Z,14.20
2022-09-17T10:56:57.435Z,14.50
2022-09-17T10:59:42.780Z,14.80
2022-09-17T11:02:45.511Z,15.10
2022-09-17T11:05:41.794Z,15.40
2022-09-17T11:08:08.567Z,15.50
2022-09-17T11:10:43.460Z,15.50
2022-09-17T11:13:17.676Z,15.10
2022-09-17T11:15:57.208Z,14.80
2022-09-17T11:18:34.970Z,14.70
2022-09-17T11:21:23.087Z,14.80
2022-09-17T11:24:15.612Z,14.90
2022-09-17T11:26:58.018Z,15.00
2022-09-17T11:29:35.476Z,15.20
2022-09-17T11:32:23.467Z,15.40
2022-09-17T11:35:07.085Z,15.60
2022-09-17T11:37:43.538Z,15.90
2022-09-17T11:40:16.753Z,16.10
2022-09-17T11:42:53.458Z,16.30
2022-09-17T11:45:29.778Z,16.20
2022-09-17T11:48:00.178Z,16.10
2022-09-17T11:50:39.975Z,16.20
2022-09-17T11:53:23.572Z,16.20
2022-09-17T11:56:02.535Z,16.30
2022-09-17T11:58:39.680Z,16.30
2022-09-17T12:01:09.584Z,16.30
2022-09-17T12:04:00.349Z,16.50
2022-09-17T12:06:52.875Z,16.70
2022-09-17T12:09:21.583Z,16.50
2022-09-17T12:12:00.377Z,16.00
2022-09-17T12:14:51.231Z,15.40
2022-09-17T12:17:23.966Z,14.90
2022-09-17T12:19:57.562Z,14.60
2022-09-17T12:22:26.530Z,14.60
2022-09-17T12:24:53.807Z,14.70
2022-09-17T12:27:38.120Z,14.90
2022-09-17T12:30:11.144Z,15.00
2022-09-17T12:32:53.082Z,15.20
2022-09-17T12:36:04.160Z,15.60
2022-09-17T12:38:43.677Z,15.80
2022-09-17T12:41:32.305Z,16.10
2022-09-17T12:44:08.011Z,16.00
2022-09-17T12:46:47.995Z,15.80
2022-09-17T12:49:23.719Z,15.60
2022-09-17T12:51:55.397Z,15.60
2022-09-17T12:54:34.160Z,15.50
2022-09-17T12:57:03.999Z,15.70
2022-09-17T12:59:31.826Z,15.70
2022-09-17T13:02:14.404Z,16.00
2022-09-17T13:05:02.514Z,16.20
2022-09-17T13:07:57.241Z,16.20
2022-09-17T13:10:41.114Z,16.20
2022-09-17T13:13:13.584Z,16.00
2022-09-17T13:16:16.962Z,15.70
2022-09-17T13:19:15.716Z,16.00
2022-09-17T13:22:00.610Z,16.10
2022-09-17T13:24:30.333Z,16.20
2022-09-17T13:26:58.671Z,16.40
2022-09-17T13:29:43.995Z,16.70
2022-09-17T13:32:33.818Z,16.50
2022-09-17T13:35:09.693Z,16.10
2022-09-17T13:37:39.350Z,15.30
2022-09-17T13:40:19.496Z,14.60
2022-09-17T13:42:47.643Z,14.30
2022-09-17T13:45:18.508Z,14.20
2022-09-17T13:47:52.930Z,14.30
2022-09-17T13:50:43.401Z,14.40
2022-09-17T13:53:17.485Z,14.60
2022-09-17T13:55:51.106Z,14.80
2022-09-17T13:58:20.989Z,14.90
2022-09-17T14:00:56.945Z,14.80
2022-09-17T14:03:37.249Z,14.20
2022-09-17T14:06:11.200Z,14.00
2022-09-17T14:08:43.948Z,13.90
2022-09-17T14:11:22.855Z,14.00
2022-09-17T14:13:55.607Z,14.20
2022-09-17T14:16:29.172Z,14.40
2022-09-17T14:19:16.457Z,14.60
2022-09-17T14:22:04.335Z,14.80
2022-09-17T14:24:50.206Z,14.80
2022-09-17T14:27:44.943Z,14.80
2022-09-17T14:30:21.310Z,14.80
2022-09-17T14:33:08.001Z,14.70
2022-09-17T14:35:38.855Z,14.80
2022-09-17T14:38:23.130Z,14.90
2022-09-17T14:41:12.836Z,15.00
2022-09-17T14:44:06.445Z,15.20
2022-09-17T14:46:45.225Z,15.30
2022-09-17T14:49:25.574Z,15.30
2022-09-17T14:51:53.436Z,15.00
2022-09-17T14:54:21.764Z,14.90
2022-09-17T14:57:08.799Z,14.70
2022-09-17T14:59:51.592Z,14.90
2022-09-17T15:02:33.643Z,14.90
2022-09-17T15:05:00.716Z,15.00
2022-09-17T15:07:27.818Z,15.00
2022-09-17T15:09:55.541Z,15.20
2022-09-17T15:12:26.083Z,15.10
2022-09-17T15:14:52.951Z,15.30
2022-09-17T15:17:19.791Z,15.40
2022-09-17T15:19:48.666Z,15.20
2022-09-17T15:22:23.482Z,15.00
2022-09-17T15:25:10.666Z,14.80
2022-09-17T15:27:44.711Z,15.00
2022-09-17T15:30:18.004Z,15.30
2022-09-17T15:32:50.938Z,15.50
2022-09-17T15:35:20.357Z,15.70
2022-09-17T15:38:21.850Z,15.70
2022-09-17T15:40:44.565Z,15.70
2022-09-17T15:43:28.656Z,15.90
2022-09-17T15:45:55.802Z,16.20
2022-09-17T15:48:28.438Z,16.50
2022-09-17T15:50:56.593Z,16.80
2022-09-17T15:53:27.599Z,17.10
2022-09-17T15:56:08.013Z,17.20
2022-09-17T15:58:47.002Z,17.00
2022-09-17T16:01:17.072Z,15.90
2022-09-17T16:03:44.291Z,15.20
2022-09-17T16:06:20.025Z,14.80
2022-09-17T16:08:48.284Z,14.50
2022-09-17T16:11:15.667Z,14.50
2022-09-17T16:13:42.663Z,14.50
2022-09-17T16:16:12.498Z,14.40
2022-09-17T16:18:39.381Z,14.50
2022-09-17T16:21:06.286Z,14.60
2022-09-17T16:23:33.071Z,14.60
2022-09-17T16:25:59.869Z,14.50
2022-09-17T16:28:26.816Z,14.50
2022-09-17T16:30:53.560Z,14.20
2022-09-17T16:33:20.395Z,14.20
2022-09-17T16:35:47.218Z,13.90
2022-09-17T16:38:14.188Z,13.80
2022-09-17T16:40:45.290Z,13.90
2022-09-17T16:43:12.097Z,14.00
2022-09-17T16:45:38.969Z,14.10
2022-09-17T16:48:05.971Z,14.20
2022-09-17T16:50:32.994Z,14.30
2022-09-17T16:53:04.701Z,14.50
2022-09-17T16:55:32.106Z,14.50
2022-09-17T16:57:59.119Z,14.50
2022-09-17T17:00:25.898Z,14.30
2022-09-17T17:02:54.778Z,14.30
2022-09-17T17:05:22.074Z,14.30
2022-09-17T17:07:49.155Z,14.30
2022-09-17T17:10:16.075Z,14.40
2022-09-17T17:12:42.841Z,14.30
2022-09-17T17:15:10.131Z,14.30
2022-09-17T17:17:37.086Z,14.30
2022-09-17T17:20:09.624Z,14.40
2022-09-17T17:22:43.699Z,14.40
2022-09-17T17:25:11.579Z,14.40
2022-09-17T17:27:38.462Z,14.50
2022-09-17T17:30:07.014Z,14.60
2022-09-17T17:32:34.589Z,14.70
2022-09-17T17:35:01.406Z,14.80
2022-09-17T17:37:28.580Z,14.80
2022-09-17T17:39:55.488Z,14.90
2022-09-17T17:42:22.479Z,15.00
2022-09-17T17:44:49.234Z,15.00
2022-09-17T17:47:16.037Z,15.10
2022-09-17T17:49:44.576Z,15.10
2022-09-17T17:52:11.459Z,15.20
2022-09-17T17:54:38.246Z,15.20
2022-09-17T17:57:05.254Z,15.20
2022-09-17T17:59:32.281Z,15.20
2022-09-17T18:01:59.153Z,15.30
2022-09-17T18:04:25.953Z,15.20
2022-09-17T18:06:52.743Z,15.20
2022-09-17T18:09:19.522Z,15.20
2022-09-17T18:11:46.381Z,15.20
2022-09-17T18:14:13.837Z,15.20
2022-09-17T18:16:40.970Z,15.20
2022-09-17T18:19:09.684Z,15.20
2022-09-17T18:21:36.447Z,15.20
2022-09-17T18:24:03.399Z,15.20
2022-09-17T18:26:30.487Z,15.30
2022-09-17T18:28:57.307Z,15.20
2022-09-17T18:31:31.849Z,15.20
2022-09-17T18:34:01.632Z,15.30
2022-09-17T18:36:29.954Z,15.20
2022-09-17T18:39:16.663Z,14.70
2022-09-17T18:41:48.342Z,14.50
2022-09-17T18:44:15.344Z,14.40
2022-09-17T18:46:42.777Z,14.50
2022-09-17T18:49:09.860Z,14.60
2022-09-17T18:51:37.417Z,14.70
2022-09-17T18:54:04.366Z,14.80
2022-09-17T18:56:32.692Z,14.90
2022-09-17T18:59:03.281Z,15.00
2022-09-17T19:01:32.717Z,15.10
2022-09-17T19:03:59.829Z,15.10
2022-09-17T19:06:29.526Z,15.10
2022-09-17T19:09:00.111Z,15.10
2022-09-17T19:11:27.011Z,15.20
2022-09-17T19:13:53.819Z,15.30
2022-09-17T19:16:20.723Z,15.20
2022-09-17T19:18:47.650Z,15.30
2022-09-17T19:21:16.802Z,15.30
2022-09-17T19:23:44.881Z,15.30
2022-09-17T19:26:13.951Z,15.30
2022-09-17T19:28:40.835Z,15.30
2022-09-17T19:31:12.082Z,15.30
2022-09-17T19:33:39.389Z,15.40
2022-09-17T19:36:08.283Z,15.40
2022-09-17T19:38:35.199Z,15.40
2022-09-17T19:41:04.142Z,15.50
2022-09-17T19:43:31.014Z,15.50
2022-09-17T19:46:05.135Z,15.50
2022-09-17T19:48:32.451Z,15.50
2022-09-17T19:50:59.270Z,15.30
2022-09-17T19:53:26.082Z,15.10
2022-09-17T19:55:52.875Z,15.10
2022-09-17T19:58:19.718Z,14.90
2022-09-17T20:00:46.662Z,14.90
2022-09-17T20:03:14.429Z,15.00
2022-09-17T20:05:41.543Z,15.10
2022-09-17T20:08:08.407Z,15.20
2022-09-17T20:10:37.304Z,15.20
2022-09-17T20:13:04.184Z,15.20
2022-09-17T20:15:34.393Z,15.20
2022-09-17T20:18:01.269Z,15.10
2022-09-17T20:20:28.667Z,15.10
2022-09-17T20:22:56.455Z,15.10
2022-09-17T20:25:25.570Z,15.10
2022-09-17T20:27:53.249Z,15.30
2022-09-17T20:30:20.089Z,15.30
2022-09-17T20:32:47.922Z,15.30
2022-09-17T20:35:14.786Z,15.30
2022-09-17T20:38:44.509Z,15.40
2022-09-17T20:40:30.054Z,15.40
2022-09-17T20:42:57.011Z,15.40
2022-09-17T20:45:23.779Z,15.40
2022-09-17T20:47:51.218Z,15.40
2022-09-17T20:50:17.988Z,15.40
2022-09-17T20:52:44.796Z,15.30
2022-09-17T20:55:11.698Z,15.30
2022-09-17T20:57:38.478Z,15.30
2022-09-17T21:00:17.928Z,15.30
2022-09-17T21:02:50.514Z,15.30
2022-09-17T21:05:20.154Z,15.30
2022-09-17T21:07:46.911Z,15.30
2022-09-17T21:10:14.229Z,15.40
2022-09-17T21:12:40.998Z,15.40
2022-09-17T21:15:08.134Z,15.40
2022-09-17T21:17:35.030Z,15.40
2022-09-17T21:20:02.465Z,15.40
2022-09-17T21:22:29.237Z,15.50
2022-09-17T21:24:56.143Z,15.50
2022-09-17T21:27:23.027Z,15.50
2022-09-17T21:29:51.095Z,15.50
2022-09-17T21:32:17.924Z,15.50
2022-09-17T21:34:44.712Z,15.50
2022-09-17T21:37:11.540Z,15.50
2022-09-17T21:39:39.035Z,15.50
2022-09-17T21:42:05.902Z,15.50
2022-09-17T21:44:32.732Z,15.50
2022-09-17T21:46:59.553Z,15.50
2022-09-17T21:49:26.362Z,15.50
2022-09-17T21:51:53.143Z,15.50
2022-09-17T21:54:20.134Z,15.50
2022-09-17T21:56:47.056Z,15.40
2022-09-17T21:59:15.119Z,15.50
2022-09-17T22:01:48.945Z,15.50
2022-09-17T22:04:17.366Z,15.50
2022-09-17T22:06:44.567Z,15.50
2022-09-17T22:09:22.631Z,15.50
2022-09-17T22:11:49.455Z,15.50
2022-09-17T22:14:19.480Z,15.50
2022-09-17T22:16:48.660Z,15.40
2022-09-17T22:19:16.750Z,15.40
2022-09-17T22:21:46.582Z,15.40
2022-09-17T22:24:14.214Z,15.50
2022-09-17T22:26:45.966Z,15.40
2022-09-17T22:29:14.517Z,15.40
2022-09-17T22:31:41.338Z,15.40
2022-09-17T22:34:09.313Z,15.40
2022-09-17T22:36:36.150Z,15.40
2022-09-17T22:39:03.209Z,15.40
2022-09-17T22:41:34.322Z,15.40
2022-09-17T22:44:02.625Z,15.40
2022-09-17T22:46:33.814Z,15.40
2022-09-17T22:49:00.822Z,15.40
2022-09-17T22:51:28.615Z,15.40
2022-09-17T22:53:55.874Z,15.40
2022-09-17T22:56:23.393Z,15.40
2022-09-17T22:58:50.253Z,15.40
2022-09-17T23:01:21.605Z,15.40
2022-09-17T23:03:49.421Z,15.30
2022-09-17T23:06:18.029Z,15.40
2022-09-17T23:08:44.889Z,15.40
2022-09-17T23:11:38.655Z,15.40
2022-09-17T23:14:08.617Z,15.50
2022-09-17T23:16:37.171Z,15.40
2022-09-17T23:19:04.134Z,15.40
2022-09-17T23:21:30.991Z,15.40
2022-09-17T23:23:57.823Z,15.40
2022-09-17T23:26:25.406Z,15.40
2022-09-17T23:28:52.331Z,15.40
2022-09-17T23:31:21.091Z,15.40
2022-09-17T23:33:48.156Z,15.40
2022-09-17T23:36:19.801Z,15.40
2022-09-17T23:38:47.089Z,15.40
2022-09-17T23:41:27.653Z,15.40
2022-09-17T23:43:55.876Z,15.30
2022-09-17T23:46:23.563Z,15.40
2022-09-17T23:48:51.703Z,15.30
2022-09-17T23:51:18.578Z,15.30
2022-09-17T23:53:45.479Z,15.40
2022-09-17T23:56:13.593Z,15.40
2022-09-17T23:58:40.415Z,15.40
